Time,TemperatureF,DewpointF,PressureIn,WindDirection,WindDirectionDegrees,WindSpeedMPH,WindSpeedGustMPH,Humidity,HourlyPrecipIn,Conditions,Clouds,dailyrainin,SolarRadiationWatts/m^2,SoftwareType,DateUTC
2013-05-02 01:32:00,63.0,19.0,-100.00,ENE,61,2.0,5.0,18,-99.99,,,0.00,1.000000,,2013-05-02 08:32:00,
2013-05-02 01:42:00,63.0,19.0,-100.00,ENE,61,2.0,5.0,18,-99.99,,,0.00,1.000000,,2013-05-02 08:42:00,
2013-05-02 01:52:00,63.0,19.0,-100.00,ENE,61,2.0,5.0,18,-99.99,,,0.00,1.000000,,2013-05-02 08:52:00,
2013-05-02 02:01:00,63.0,19.0,-100.00,ENE,61,2.0,5.0,18,-99.99,,,0.00,1.000000,,2013-05-02 09:01:00,
2013-05-02 02:33:00,61.0,20.0,-100.00,WNW,294,2.0,5.0,20,0.00,,,0.00,1.000000,,2013-05-02 09:33:00,
2013-05-02 02:42:00,61.0,20.0,-100.00,WNW,294,2.0,5.0,20,0.00,,,0.00,1.000000,,2013-05-02 09:42:00,
2013-05-02 02:52:00,61.0,20.0,-100.00,WNW,294,2.0,5.0,20,0.00,,,0.00,1.000000,,2013-05-02 09:52:00,
2013-05-02 03:02:00,61.0,20.0,-100.00,WNW,294,2.0,5.0,20,0.00,,,0.00,1.000000,,2013-05-02 10:02:00,
2013-05-02 03:33:00,59.0,19.0,-100.00,SSE,160,2.0,5.0,21,0.00,,,0.00,1.000000,,2013-05-02 10:33:00,
2013-05-02 03:42:00,59.0,19.0,-100.00,SSE,160,2.0,5.0,21,0.00,,,0.00,1.000000,,2013-05-02 10:42:00,
2013-05-02 03:52:00,59.0,19.0,-100.00,SSE,160,2.0,5.0,21,0.00,,,0.00,1.000000,,2013-05-02 10:52:00,
2013-05-02 04:02:00,59.0,19.0,-100.00,SSE,160,2.0,5.0,21,0.00,,,0.00,1.000000,,2013-05-02 11:02:00,
2013-05-02 04:32:00,58.0,21.0,-100.00,North,351,4.0,6.0,24,0.00,,,0.00,1.000000,,2013-05-02 11:32:00,
2013-05-02 04:42:00,58.0,21.0,-100.00,North,351,4.0,6.0,24,0.00,,,0.00,1.000000,,2013-05-02 11:42:00,
2013-05-02 04:52:00,58.0,21.0,-100.00,North,351,4.0,6.0,24,0.00,,,0.00,1.000000,,2013-05-02 11:52:00,
2013-05-02 05:01:00,58.0,21.0,-100.00,North,351,4.0,6.0,24,0.00,,,0.00,1.000000,,2013-05-02 12:01:00,
2013-05-02 06:32:00,55.0,22.0,-100.00,NW,316,2.0,5.0,27,-99.99,,,0.00,9.000000,,2013-05-02 13:32:00,
2013-05-02 06:42:00,55.0,22.0,-100.00,NW,316,2.0,5.0,27,-99.99,,,0.00,9.000000,,2013-05-02 13:42:00,
2013-05-02 06:52:00,55.0,22.0,-100.00,NW,316,2.0,5.0,27,-99.99,,,0.00,9.000000,,2013-05-02 13:52:00,
2013-05-02 07:02:00,55.0,22.0,-100.00,NW,316,2.0,5.0,27,-99.99,,,0.00,9.000000,,2013-05-02 14:02:00,
2013-05-02 07:32:00,69.0,29.0,-100.00,NW,312,2.0,4.0,22,-99.99,,,0.00,138.000000,,2013-05-02 14:32:00,
2013-05-02 07:43:00,69.0,29.0,-100.00,NW,312,2.0,4.0,22,-99.99,,,0.00,138.000000,,2013-05-02 14:43:00,
2013-05-02 07:52:00,69.0,29.0,-100.00,NW,312,2.0,4.0,22,-99.99,,,0.00,138.000000,,2013-05-02 14:52:00,
2013-05-02 08:02:00,69.0,29.0,-100.00,NW,312,2.0,4.0,22,-99.99,,,0.00,138.000000,,2013-05-02 15:02:00,
2013-05-02 08:33:00,75.0,24.0,-100.00,WSW,258,6.0,9.0,15,0.00,,,0.00,370.000000,,2013-05-02 15:33:00,
2013-05-02 08:43:00,75.0,24.0,-100.00,WSW,258,6.0,9.0,15,0.00,,,0.00,370.000000,,2013-05-02 15:43:00,
2013-05-02 09:02:00,75.0,24.0,-100.00,WSW,258,6.0,9.0,15,0.00,,,0.00,370.000000,,2013-05-02 16:02:00,
2013-05-02 09:32:00,80.0,19.0,-100.00,WNW,286,6.0,10.0,10,0.00,,,0.00,591.000000,,2013-05-02 16:32:00,
2013-05-02 09:43:00,80.0,19.0,-100.00,WNW,286,6.0,10.0,10,0.00,,,0.00,591.000000,,2013-05-02 16:43:00,
2013-05-02 09:52:00,80.0,19.0,-100.00,WNW,286,6.0,10.0,10,0.00,,,0.00,591.000000,,2013-05-02 16:52:00,
2013-05-02 10:02:00,80.0,19.0,-100.00,WNW,286,6.0,10.0,10,0.00,,,0.00,591.000000,,2013-05-02 17:02:00,
2013-05-02 10:32:00,85.0,17.0,-100.00,SSE,162,4.0,9.0,8,0.00,,,0.00,783.000000,,2013-05-02 17:32:00,
2013-05-02 10:42:00,85.0,17.0,-100.00,SSE,162,4.0,9.0,8,0.00,,,0.00,783.000000,,2013-05-02 17:42:00,
2013-05-02 10:52:00,85.0,17.0,-100.00,SSE,162,4.0,9.0,8,0.00,,,0.00,783.000000,,2013-05-02 17:52:00,
2013-05-02 11:01:00,85.0,17.0,-100.00,SSE,162,4.0,9.0,8,0.00,,,0.00,783.000000,,2013-05-02 18:01:00,
2013-05-02 11:32:00,87.0,16.0,-100.00,NW,318,7.0,11.0,7,0.00,,,0.00,928.000000,,2013-05-02 18:32:00,
2013-05-02 11:42:00,87.0,16.0,-100.00,NW,318,7.0,11.0,7,0.00,,,0.00,928.000000,,2013-05-02 18:42:00,
2013-05-02 11:52:00,87.0,16.0,-100.00,NW,318,7.0,11.0,7,0.00,,,0.00,928.000000,,2013-05-02 18:52:00,
2013-05-02 12:01:00,87.0,16.0,-100.00,NW,318,7.0,11.0,7,0.00,,,0.00,928.000000,,2013-05-02 19:01:00,
2013-05-02 12:32:00,90.0,14.0,-100.00,ESE,112,6.0,15.0,6,0.00,,,0.00,1011.000000,,2013-05-02 19:32:00,
2013-05-02 12:42:00,90.0,14.0,-100.00,ESE,112,6.0,15.0,6,0.00,,,0.00,1011.000000,,2013-05-02 19:42:00,
2013-05-02 12:52:00,90.0,14.0,-100.00,ESE,112,6.0,15.0,6,0.00,,,0.00,1011.000000,,2013-05-02 19:52:00,
2013-05-02 13:01:00,90.0,14.0,-100.00,ESE,112,6.0,15.0,6,0.00,,,0.00,1011.000000,,2013-05-02 20:01:00,
2013-05-02 13:32:00,91.0,11.0,-100.00,SE,130,10.0,19.0,5,0.00,,,0.00,1030.000000,,2013-05-02 20:32:00,
2013-05-02 13:42:00,91.0,11.0,-100.00,SE,130,10.0,19.0,5,0.00,,,0.00,1030.000000,,2013-05-02 20:42:00,
2013-05-02 13:52:00,91.0,11.0,-100.00,SE,130,10.0,19.0,5,0.00,,,0.00,1030.000000,,2013-05-02 20:52:00,
2013-05-02 14:01:00,91.0,11.0,-100.00,SE,130,10.0,19.0,5,0.00,,,0.00,1030.000000,,2013-05-02 21:01:00,
2013-05-02 14:33:00,92.0,16.0,-100.00,ESE,120,10.0,19.0,6,0.00,,,0.00,981.000000,,2013-05-02 21:33:00,
2013-05-02 14:42:00,92.0,16.0,-100.00,ESE,120,10.0,19.0,6,0.00,,,0.00,981.000000,,2013-05-02 21:42:00,
2013-05-02 14:53:00,92.0,16.0,-100.00,ESE,120,10.0,19.0,6,0.00,,,0.00,981.000000,,2013-05-02 21:53:00,
2013-05-02 15:02:00,92.0,16.0,-100.00,ESE,120,10.0,19.0,6,0.00,,,0.00,981.000000,,2013-05-02 22:02:00,
2013-05-02 15:33:00,91.0,18.0,-100.00,ESE,104,9.0,19.0,7,0.00,,,0.00,861.000000,,2013-05-02 22:33:00,
2013-05-02 15:42:00,91.0,18.0,-100.00,ESE,104,9.0,19.0,7,0.00,,,0.00,861.000000,,2013-05-02 22:42:00,
2013-05-02 15:52:00,91.0,18.0,-100.00,ESE,104,9.0,19.0,7,0.00,,,0.00,861.000000,,2013-05-02 22:52:00,
2013-05-02 16:02:00,91.0,18.0,-100.00,ESE,104,9.0,19.0,7,0.00,,,0.00,861.000000,,2013-05-02 23:02:00,
2013-05-02 16:32:00,91.0,18.0,-100.00,ESE,121,10.0,17.0,7,0.00,,,0.00,686.000000,,2013-05-02 23:32:00,
2013-05-02 16:42:00,91.0,18.0,-100.00,ESE,121,10.0,17.0,7,0.00,,,0.00,686.000000,,2013-05-02 23:42:00,
2013-05-02 16:52:00,91.0,18.0,-100.00,ESE,121,10.0,17.0,7,0.00,,,0.00,686.000000,,2013-05-02 23:52:00,
2013-05-02 17:01:00,91.0,18.0,-100.00,ESE,121,10.0,17.0,7,0.00,,,0.00,686.000000,,2013-05-03 00:01:00,
2013-05-02 18:32:00,86.0,18.0,-100.00,ENE,70,10.0,19.0,8,-99.99,,,0.00,238.000000,,2013-05-03 01:32:00,
2013-05-02 18:42:00,86.0,18.0,-100.00,ENE,70,10.0,19.0,8,-99.99,,,0.00,238.000000,,2013-05-03 01:42:00,
2013-05-02 18:52:00,86.0,18.0,-100.00,ENE,70,10.0,19.0,8,-99.99,,,0.00,238.000000,,2013-05-03 01:52:00,
2013-05-02 19:01:00,86.0,18.0,-100.00,ENE,70,10.0,19.0,8,-99.99,,,0.00,238.000000,,2013-05-03 02:01:00,
2013-05-02 19:32:00,82.0,18.0,-100.00,East,80,10.0,19.0,9,0.00,,,0.00,55.000000,,2013-05-03 02:32:00,
2013-05-02 19:42:00,82.0,18.0,-100.00,East,80,10.0,19.0,9,0.00,,,0.00,55.000000,,2013-05-03 02:42:00,
2013-05-02 19:52:00,82.0,18.0,-100.00,East,80,10.0,19.0,9,0.00,,,0.00,55.000000,,2013-05-03 02:52:00,
2013-05-02 20:01:00,82.0,18.0,-100.00,East,80,10.0,19.0,9,0.00,,,0.00,55.000000,,2013-05-03 03:01:00,
2013-05-02 20:33:00,79.0,15.0,-100.00,NE,52,6.0,21.0,9,0.00,,,0.00,1.000000,,2013-05-03 03:33:00,
2013-05-02 20:43:00,79.0,15.0,-100.00,NE,52,6.0,21.0,9,0.00,,,0.00,1.000000,,2013-05-03 03:43:00,
2013-05-02 20:53:00,79.0,15.0,-100.00,NE,52,6.0,21.0,9,0.00,,,0.00,1.000000,,2013-05-03 03:53:00,
2013-05-02 21:02:00,79.0,15.0,-100.00,NE,52,6.0,21.0,9,0.00,,,0.00,1.000000,,2013-05-03 04:02:00,
2013-05-02 21:32:00,79.0,13.0,-100.00,ENE,66,12.0,22.0,8,0.00,,,0.00,1.000000,,2013-05-03 04:32:00,
2013-05-02 21:43:00,79.0,13.0,-100.00,ENE,66,12.0,22.0,8,0.00,,,0.00,1.000000,,2013-05-03 04:43:00,
2013-05-02 21:53:00,79.0,13.0,-100.00,ENE,66,12.0,22.0,8,0.00,,,0.00,1.000000,,2013-05-03 04:53:00,
2013-05-02 22:02:00,79.0,13.0,-100.00,ENE,66,12.0,22.0,8,0.00,,,0.00,1.000000,,2013-05-03 05:02:00,
2013-05-02 22:32:00,77.0,11.0,-100.00,ENE,59,8.0,22.0,8,0.00,,,0.00,1.000000,,2013-05-03 05:32:00,
2013-05-02 22:42:00,77.0,11.0,-100.00,ENE,59,8.0,22.0,8,0.00,,,0.00,1.000000,,2013-05-03 05:42:00,
2013-05-02 22:52:00,77.0,11.0,-100.00,ENE,59,8.0,22.0,8,0.00,,,0.00,1.000000,,2013-05-03 05:52:00,
2013-05-02 23:01:00,77.0,11.0,-100.00,ENE,59,8.0,22.0,8,0.00,,,0.00,1.000000,,2013-05-03 06:01:00,
2013-05-02 23:32:00,73.0,17.0,-100.00,ENE,73,13.0,26.0,12,0.00,,,-99.99,1.000000,,2013-05-03 06:32:00,
2013-05-02 23:42:00,73.0,17.0,-100.00,ENE,73,13.0,26.0,12,0.00,,,-99.99,1.000000,,2013-05-03 06:42:00,
2013-05-02 23:52:00,73.0,17.0,-100.00,ENE,73,13.0,26.0,12,0.00,,,-99.99,1.000000,,2013-05-03 06:52:00,